Time,TemperatureF,DewpointF,PressureIn,WindDirection,WindDirectionDegrees,WindSpeedMPH,WindSpeedGustMPH,Humidity,HourlyPrecipIn,Conditions,Clouds,dailyrainin,SoftwareType,DateUTC
2013-03-21 00:02:00,39.0,25.0,-100.00,ENE,70,7.0,8.0,56,-99.99,,,0.00,,2013-03-21 06:02:00,
2013-03-21 02:52:00,35.0,30.0,-100.00,West,280,8.0,11.0,80,-99.99,,,0.00,,2013-03-21 08:52:00,
2013-03-21 03:02:00,35.0,30.0,-100.00,West,280,8.0,11.0,80,-99.99,,,0.00,,2013-03-21 09:02:00,
2013-03-21 03:11:00,35.0,30.0,-100.00,West,280,8.0,11.0,80,-99.99,,,0.00,,2013-03-21 09:11:00,
2013-03-21 04:00:00,34.0,26.0,-100.00,West,270,11.0,16.0,71,-99.99,,,0.00,,2013-03-21 10:00:00,
2013-03-21 04:33:00,34.0,26.0,-100.00,West,270,11.0,16.0,71,-99.99,,,0.00,,2013-03-21 10:33:00,
2013-03-21 04:42:00,34.0,26.0,-100.00,West,270,11.0,16.0,71,-99.99,,,0.00,,2013-03-21 10:42:00,
2013-03-21 04:52:00,34.0,26.0,-100.00,West,270,11.0,16.0,71,-99.99,,,0.00,,2013-03-21 10:52:00,
2013-03-21 05:00:00,34.0,23.0,-100.00,West,270,8.0,11.0,64,-99.99,,,0.00,,2013-03-21 11:00:00,
2013-03-21 05:12:00,35.0,24.0,-100.00,West,275,11.0,17.0,65,-99.99,,,0.00,,2013-03-21 11:12:00,
2013-03-21 05:22:00,35.0,24.0,-100.00,West,275,11.0,17.0,65,-99.99,,,0.00,,2013-03-21 11:22:00,
2013-03-21 05:33:00,34.0,23.0,-100.00,West,270,8.0,11.0,64,-99.99,,,0.00,,2013-03-21 11:33:00,
2013-03-21 05:42:00,34.0,23.0,-100.00,West,270,8.0,11.0,64,-99.99,,,0.00,,2013-03-21 11:42:00,
2013-03-21 05:52:00,34.0,23.0,-100.00,West,270,8.0,11.0,64,-99.99,,,0.00,,2013-03-21 11:52:00,
2013-03-21 06:00:00,34.0,20.0,-100.00,West,270,7.0,11.0,55,-99.99,,,0.00,,2013-03-21 12:00:00,
2013-03-21 06:12:00,34.0,21.0,-100.00,West,265,10.0,15.0,59,-99.99,,,0.00,,2013-03-21 12:12:00,
2013-03-21 06:22:00,34.0,21.0,-100.00,West,265,10.0,15.0,59,-99.99,,,0.00,,2013-03-21 12:22:00,
2013-03-21 06:32:00,34.0,20.0,-100.00,West,270,7.0,11.0,55,-99.99,,,0.00,,2013-03-21 12:32:00,
2013-03-21 06:42:00,34.0,20.0,-100.00,West,270,7.0,11.0,55,-99.99,,,0.00,,2013-03-21 12:42:00,
2013-03-21 06:52:00,34.0,20.0,-100.00,West,270,7.0,11.0,55,-99.99,,,0.00,,2013-03-21 12:52:00,
2013-03-21 07:12:00,34.0,18.0,-100.00,West,280,6.0,9.0,52,-99.99,,,0.00,,2013-03-21 13:12:00,
2013-03-21 07:22:00,34.0,18.0,-100.00,West,280,6.0,9.0,52,-99.99,,,0.00,,2013-03-21 13:22:00,
2013-03-21 08:00:00,32.0,18.0,-100.00,WNW,285,5.0,8.0,56,-99.99,,,0.00,,2013-03-21 14:00:00,
2013-03-21 08:12:00,33.0,17.0,-100.00,West,265,8.0,11.0,52,-99.99,,,0.00,,2013-03-21 14:12:00,
2013-03-21 08:21:00,33.0,17.0,-100.00,West,265,8.0,11.0,52,-99.99,,,0.00,,2013-03-21 14:21:00,
2013-03-21 08:32:00,32.0,18.0,-100.00,WNW,285,5.0,8.0,56,-99.99,,,0.00,,2013-03-21 14:32:00,
2013-03-21 08:42:00,32.0,18.0,-100.00,WNW,285,5.0,8.0,56,-99.99,,,0.00,,2013-03-21 14:42:00,
2013-03-21 08:52:00,32.0,18.0,-100.00,WNW,285,5.0,8.0,56,-99.99,,,0.00,,2013-03-21 14:52:00,
2013-03-21 09:12:00,31.0,19.0,-100.00,WNW,285,5.0,8.0,59,-99.99,,,0.00,,2013-03-21 15:12:00,
2013-03-21 09:22:00,31.0,19.0,-100.00,WNW,285,5.0,8.0,59,-99.99,,,0.00,,2013-03-21 15:22:00,
2013-03-21 09:32:00,32.0,19.0,-100.00,WSW,250,7.0,9.0,57,-99.99,,,0.00,,2013-03-21 15:32:00,
2013-03-21 09:42:00,32.0,19.0,-100.00,WSW,250,7.0,9.0,57,-99.99,,,0.00,,2013-03-21 15:42:00,
2013-03-21 09:52:00,32.0,19.0,-100.00,WSW,250,7.0,9.0,57,-99.99,,,0.00,,2013-03-21 15:52:00,
2013-03-21 10:00:00,34.0,17.0,-100.00,West,270,10.0,14.0,50,-99.99,,,0.00,,2013-03-21 16:00:00,
2013-03-21 10:12:00,33.0,19.0,-100.00,West,260,9.0,12.0,57,-99.99,,,0.00,,2013-03-21 16:12:00,
2013-03-21 10:22:00,33.0,19.0,-100.00,West,260,9.0,12.0,57,-99.99,,,0.00,,2013-03-21 16:22:00,
2013-03-21 10:33:00,34.0,17.0,-100.00,West,270,10.0,14.0,50,-99.99,,,0.00,,2013-03-21 16:33:00,
2013-03-21 10:42:00,34.0,17.0,-100.00,West,270,10.0,14.0,50,-99.99,,,0.00,,2013-03-21 16:42:00,
2013-03-21 10:52:00,34.0,17.0,-100.00,West,270,10.0,14.0,50,-99.99,,,0.00,,2013-03-21 16:52:00,
2013-03-21 11:12:00,34.0,16.0,-100.00,West,265,16.0,22.0,47,-99.99,,,0.00,,2013-03-21 17:12:00,
2013-03-21 11:23:00,34.0,16.0,-100.00,West,265,16.0,22.0,47,-99.99,,,0.00,,2013-03-21 17:23:00,
2013-03-21 11:32:00,34.0,16.0,-100.00,West,265,11.0,13.0,47,-99.99,,,0.00,,2013-03-21 17:32:00,
2013-03-21 11:42:00,34.0,16.0,-100.00,West,265,11.0,13.0,47,-99.99,,,0.00,,2013-03-21 17:42:00,
2013-03-21 11:52:00,34.0,16.0,-100.00,West,265,11.0,13.0,47,-99.99,,,0.00,,2013-03-21 17:52:00,
2013-03-21 12:00:00,35.0,14.0,-100.00,West,270,8.0,9.0,42,-99.99,,,0.00,,2013-03-21 18:00:00,
2013-03-21 12:12:00,34.0,14.0,-100.00,WNW,285,11.0,16.0,43,-99.99,,,0.00,,2013-03-21 18:12:00,
2013-03-21 12:22:00,34.0,14.0,-100.00,WNW,285,11.0,16.0,43,-99.99,,,0.00,,2013-03-21 18:22:00,
2013-03-21 12:32:00,35.0,14.0,-100.00,West,270,8.0,9.0,42,-99.99,,,0.00,,2013-03-21 18:32:00,
2013-03-21 12:42:00,35.0,14.0,-100.00,West,270,8.0,9.0,42,-99.99,,,0.00,,2013-03-21 18:42:00,
2013-03-21 12:52:00,35.0,14.0,-100.00,West,270,8.0,9.0,42,-99.99,,,0.00,,2013-03-21 18:52:00,
2013-03-21 13:12:00,36.0,13.0,-100.00,West,260,12.0,21.0,39,-99.99,,,0.00,,2013-03-21 19:12:00,
2013-03-21 13:22:00,36.0,13.0,-100.00,West,260,12.0,21.0,39,-99.99,,,0.00,,2013-03-21 19:22:00,
2013-03-21 13:32:00,36.0,13.0,-100.00,WNW,300,9.0,12.0,37,-99.99,,,-99.99,,2013-03-21 19:32:00,
2013-03-21 13:42:00,36.0,13.0,-100.00,WNW,300,9.0,12.0,37,-99.99,,,-99.99,,2013-03-21 19:42:00,
2013-03-21 13:52:00,36.0,13.0,-100.00,WNW,300,9.0,12.0,37,-99.99,,,-99.99,,2013-03-21 19:52:00,
2013-03-21 14:12:00,38.0,12.0,-100.00,West,260,9.0,18.0,35,-99.99,,,0.00,,2013-03-21 20:12:00,
2013-03-21 14:22:00,38.0,12.0,-100.00,West,260,9.0,18.0,35,-99.99,,,0.00,,2013-03-21 20:22:00,
2013-03-21 14:30:00,38.0,10.0,-100.00,WNW,285,10.0,16.0,31,-99.99,,,0.00,,2013-03-21 20:30:00,
2013-03-21 14:52:00,39.0,12.0,-100.00,West,270,9.0,12.0,33,-99.99,,,-99.99,,2013-03-21 20:52:00,
2013-03-21 15:00:00,38.0,9.0,-100.00,West,265,10.0,12.0,30,-99.99,,,0.00,,2013-03-21 21:00:00,
2013-03-21 15:12:00,38.0,10.0,-100.00,WNW,285,10.0,16.0,31,-99.99,,,0.00,,2013-03-21 21:12:00,
2013-03-21 15:22:00,38.0,10.0,-100.00,WNW,285,10.0,16.0,31,-99.99,,,0.00,,2013-03-21 21:22:00,
2013-03-21 15:52:00,38.0,9.0,-100.00,West,265,10.0,12.0,30,-99.99,,,0.00,,2013-03-21 21:52:00,
2013-03-21 16:13:00,38.0,10.0,-100.00,WNW,300,12.0,19.0,30,-99.99,,,0.00,,2013-03-21 22:13:00,
2013-03-21 16:23:00,38.0,10.0,-100.00,WNW,300,12.0,19.0,30,-99.99,,,0.00,,2013-03-21 22:23:00,
2013-03-21 16:33:00,38.0,9.0,-100.00,WSW,255,8.0,11.0,30,-99.99,,,-99.99,,2013-03-21 22:33:00,
2013-03-21 16:42:00,38.0,9.0,-100.00,WSW,255,8.0,11.0,30,-99.99,,,-99.99,,2013-03-21 22:42:00,
2013-03-21 16:52:00,38.0,9.0,-100.00,WSW,255,8.0,11.0,30,-99.99,,,-99.99,,2013-03-21 22:52:00,
2013-03-21 17:00:00,37.0,9.0,-100.00,West,275,8.0,11.0,31,-99.99,,,-99.99,,2013-03-21 23:00:00,
2013-03-21 17:12:00,38.0,10.0,-100.00,West,265,8.0,11.0,30,-99.99,,,0.00,,2013-03-21 23:12:00,
2013-03-21 17:22:00,38.0,10.0,-100.00,West,265,8.0,11.0,30,-99.99,,,0.00,,2013-03-21 23:22:00,
2013-03-21 17:30:00,36.0,10.0,-100.00,WSW,240,11.0,19.0,33,-99.99,,,-99.99,,2013-03-21 23:30:00,
2013-03-21 17:32:00,37.0,9.0,-100.00,West,275,8.0,11.0,31,-99.99,,,-99.99,,2013-03-21 23:32:00,
2013-03-21 17:42:00,37.0,9.0,-100.00,West,275,8.0,11.0,31,-99.99,,,-99.99,,2013-03-21 23:42:00,
2013-03-21 17:52:00,37.0,9.0,-100.00,West,275,8.0,11.0,31,-99.99,,,-99.99,,2013-03-21 23:52:00,
2013-03-21 18:12:00,36.0,10.0,-100.00,WSW,240,11.0,19.0,33,-99.99,,,-99.99,,2013-03-22 00:12:00,
2013-03-21 18:22:00,36.0,10.0,-100.00,WSW,240,11.0,19.0,33,-99.99,,,-99.99,,2013-03-22 00:22:00,
2013-03-21 20:11:00,31.0,10.0,-100.00,West,265,8.0,9.0,40,-99.99,,,0.00,,2013-03-22 02:11:00,
2013-03-21 20:52:00,31.0,10.0,-100.00,West,265,8.0,9.0,40,-99.99,,,0.00,,2013-03-22 02:52:00,
2013-03-21 21:02:00,31.0,10.0,-100.00,West,265,8.0,9.0,40,-99.99,,,0.00,,2013-03-22 03:02:00,
2013-03-21 23:12:00,26.0,13.0,-100.00,West,265,8.0,9.0,57,-99.99,,,0.00,,2013-03-22 05:12:00,
2013-03-21 23:52:00,26.0,13.0,-100.00,West,265,8.0,9.0,57,-99.99,,,0.00,,2013-03-22 05:52:00,